Time;durP1;ratioP1;P1;durP2;ratioP2;P2;SDS_P1;SDS_P2;PMS_P1;PMS_P2;Temp;Humidity;BMP_temperature;BMP_pressure;BME280_temperature;BME280_humidity;BME280_pressure;Samples;Min_cycle;Max_cycle;Signal;HPM_P1;HPM_P2
2022/05/12 00:00:12;;;;;;;2.17;1.20;;;;;;;13.92;66.50;101307.69;5016192;28;20025;-76
2022/05/12 00:02:37;;;;;;;1.10;0.93;;;;;;;13.87;67.05;101299.94;5016781;28;20034;-76
2022/05/12 00:05:06;;;;;;;2.97;1.23;;;;;;;13.85;66.52;101314.78;5016636;28;20022;-76
2022/05/12 00:07:31;;;;;;;2.42;1.10;;;;;;;13.81;66.77;101313.13;5015681;28;20041;-76
2022/05/12 00:10:00;;;;;;;2.83;1.10;;;;;;;13.79;67.05;101310.53;5008057;28;20042;-76
2022/05/12 00:12:26;;;;;;;1.50;0.93;;;;;;;13.77;66.07;101314.09;4996817;28;20084;-76
2022/05/12 00:14:54;;;;;;;0.60;0.60;;;;;;;13.72;65.78;101316.78;4996403;28;20426;-76
2022/05/12 00:17:19;;;;;;;0.88;0.60;;;;;;;13.71;66.46;101320.28;4996683;28;20167;-76
2022/05/12 00:19:44;;;;;;;0.80;0.80;;;;;;;13.65;66.75;101315.22;4996465;28;20022;-76
2022/05/12 00:22:09;;;;;;;2.23;0.97;;;;;;;13.58;66.64;101327.53;4996307;28;20483;-76
2022/05/12 00:24:35;;;;;;;0.80;0.80;;;;;;;13.54;66.34;101334.56;4996898;28;20026;-77
2022/05/12 00:27:00;;;;;;;1.40;0.60;;;;;;;13.48;67.47;101326.81;4996700;28;20045;-75
2022/05/12 00:29:25;;;;;;;1.47;0.80;;;;;;;13.46;66.45;101326.00;4996040;28;20054;-76
2022/05/12 00:31:51;;;;;;;0.50;0.50;;;;;;;13.42;65.64;101327.81;4996635;28;20105;-76
2022/05/12 00:34:19;;;;;;;0.70;0.60;;;;;;;13.39;66.14;101332.19;4996704;28;20068;-76
2022/05/12 00:36:46;;;;;;;1.88;0.82;;;;;;;13.36;66.07;101334.84;4996108;28;20409;-76
2022/05/12 00:39:11;;;;;;;1.33;0.77;;;;;;;13.33;67.27;101341.00;5016219;28;20033;-76
2022/05/12 00:41:37;;;;;;;0.80;0.80;;;;;;;13.27;66.30;101346.34;5015783;28;20393;-76
2022/05/12 00:44:06;;;;;;;1.17;0.68;;;;;;;13.23;66.50;101347.28;5015543;28;20030;-76
2022/05/12 00:46:38;;;;;;;1.42;0.60;;;;;;;13.19;66.19;101345.59;5016080;28;20026;-76
2022/05/12 00:49:25;;;;;;;1.83;0.60;;;;;;;13.12;68.06;101352.66;5016021;28;20030;-76
2022/05/12 00:51:56;;;;;;;1.35;0.68;;;;;;;13.07;66.23;101350.13;5015481;28;20044;-75
2022/05/12 00:54:33;;;;;;;0.70;0.70;;;;;;;13.04;66.46;101354.53;5016172;28;20034;-76
2022/05/12 00:57:01;;;;;;;;;;;;;;;13.02;66.83;101358.91;5015424;28;20390;-76
2022/05/12 00:59:31;;;;;;;0.50;0.50;;;;;;;12.99;66.08;101362.44;5015913;28;19913;-76
2022/05/12 01:01:57;;;;;;;0.52;0.52;;;;;;;12.97;65.34;101356.41;5010570;28;20602;-76
2022/05/12 01:04:24;;;;;;;0.40;0.40;;;;;;;12.96;65.50;101362.50;4995234;28;20385;-76
2022/05/12 01:06:51;;;;;;;0.93;0.30;;;;;;;12.92;65.81;101369.50;4997329;28;20022;-76
2022/05/12 01:09:16;;;;;;;;;;;;;;;12.91;65.50;101374.75;5015176;28;20513;-76
2022/05/12 01:11:41;;;;;;;0.40;0.40;;;;;;;12.88;65.33;101380.00;5014061;28;19913;-76
2022/05/12 01:14:08;;;;;;;0.40;0.40;;;;;;;12.83;65.52;101377.47;5015731;28;20029;-76
2022/05/12 01:16:35;;;;;;;0.35;0.35;;;;;;;12.79;65.68;101379.28;5015448;28;20080;-76
2022/05/12 01:19:01;;;;;;;0.55;0.40;;;;;;;12.77;65.14;101380.19;5012380;28;20116;-76
2022/05/12 01:21:26;;;;;;;0.40;0.40;;;;;;;12.75;65.31;101381.97;5014920;28;20026;-76
2022/05/12 01:23:51;;;;;;;0.43;0.30;;;;;;;12.72;65.01;101382.84;5015019;28;20022;-76
2022/05/12 01:26:17;;;;;;;0.40;0.40;;;;;;;12.71;65.28;101388.09;5014523;28;20482;-76
2022/05/12 01:28:45;;;;;;;0.40;0.40;;;;;;;12.65;65.32;101395.13;5014893;28;20026;-76
2022/05/12 01:31:21;;;;;;;0.40;0.40;;;;;;;12.61;65.09;101392.59;5015001;28;20054;-75
2022/05/12 01:33:46;;;;;;;0.50;0.50;;;;;;;12.58;65.25;101400.44;5014331;28;20030;-75
2022/05/12 01:36:12;;;;;;;0.40;0.40;;;;;;;12.55;65.05;101396.16;4999198;28;20129;-75
2022/05/12 01:38:37;;;;;;;0.97;0.60;;;;;;;12.51;65.17;101400.50;4994390;28;20459;-75
2022/05/12 01:41:02;;;;;;;0.50;0.50;;;;;;;12.49;65.30;101411.84;4995221;28;20022;-75
2022/05/12 01:43:28;;;;;;;0.40;0.40;;;;;;;12.45;65.40;101418.84;4995386;28;20452;-75
2022/05/12 01:45:53;;;;;;;1.13;0.63;;;;;;;12.39;65.48;101411.09;4994310;28;20026;-75
2022/05/12 01:48:19;;;;;;;1.00;0.70;;;;;;;12.35;67.04;101418.09;4995087;28;20081;-75
2022/05/12 01:50:46;;;;;;;0.93;0.73;;;;;;;12.29;65.69;101412.97;4995022;28;20081;-75
2022/05/12 01:53:14;;;;;;;0.50;0.50;;;;;;;12.26;65.63;101414.78;4994503;28;20027;-75
2022/05/12 01:55:40;;;;;;;0.57;0.57;;;;;;;12.23;65.68;101420.84;4994735;28;20040;-75
2022/05/12 01:58:06;;;;;;;1.20;0.77;;;;;;;12.23;65.69;101422.59;4995059;28;20026;-75
2022/05/12 02:00:32;;;;;;;0.45;0.45;;;;;;;12.17;66.20;101423.53;5005612;28;20454;-75
2022/05/12 02:03:00;;;;;;;0.50;0.50;;;;;;;12.14;65.88;101427.06;5014239;28;20495;-75
2022/05/12 02:05:33;;;;;;;0.60;0.60;;;;;;;12.11;65.94;101429.69;5014584;28;20036;-75
2022/05/12 02:07:59;;;;;;;0.98;0.70;;;;;;;12.09;66.13;101441.84;5013018;28;20133;-75
2022/05/12 02:10:31;;;;;;;0.77;0.60;;;;;;;12.07;66.02;101438.41;5014540;28;20097;-75
2022/05/12 02:12:56;;;;;;;0.93;0.77;;;;;;;12.03;66.09;101437.56;5014048;28;20483;-75
2022/05/12 02:15:22;;;;;;;0.70;0.60;;;;;;;12.01;65.98;101441.09;5013496;28;20060;-75
2022/05/12 02:17:49;;;;;;;1.40;0.60;;;;;;;11.97;66.78;101448.03;5013992;28;20014;-75
2022/05/12 02:20:16;;;;;;;0.88;0.60;;;;;;;11.93;67.03;101443.75;5014332;28;20030;-75
2022/05/12 02:22:41;;;;;;;0.47;0.47;;;;;;;11.88;67.16;101445.50;5013048;28;20080;-75
2022/05/12 02:25:07;;;;;;;0.53;0.53;;;;;;;11.81;67.39;101452.56;5014136;28;20017;-75
2022/05/12 02:27:33;;;;;;;1.50;0.80;;;;;;;11.79;67.78;101456.91;5013287;28;20072;-75
2022/05/12 02:29:59;;;;;;;1.77;1.17;;;;;;;11.74;70.43;101456.94;5012970;28;20688;-75
2022/05/12 02:32:27;;;;;;;5.03;1.70;;;;;;;11.69;69.50;101460.47;5014259;28;20022;-75
2022/05/12 02:34:52;;;;;;;1.08;1.02;;;;;;;11.66;68.72;101463.94;5012841;28;20474;-75
2022/05/12 02:37:17;;;;;;;1.27;1.00;;;;;;;11.62;69.32;101466.59;5013825;28;20030;-75
2022/05/12 02:39:43;;;;;;;1.10;0.97;;;;;;;11.57;67.93;101470.13;5013558;28;20057;-75
2022/05/12 02:42:09;;;;;;;1.03;0.93;;;;;;;11.59;68.64;101470.09;5013116;28;20469;-75
2022/05/12 02:44:36;;;;;;;0.65;0.65;;;;;;;11.57;68.47;101477.91;5013699;28;20034;-75
2022/05/12 02:47:03;;;;;;;0.80;0.75;;;;;;;11.56;68.31;101476.19;5013380;28;20438;-75
2022/05/12 02:49:28;;;;;;;0.88;0.60;;;;;;;11.51;67.89;101488.34;5013083;28;20030;-75
2022/05/12 02:51:54;;;;;;;1.70;0.90;;;;;;;11.51;68.04;101490.09;5009893;28;20467;-75
2022/05/12 02:54:19;;;;;;;2.43;1.00;;;;;;;11.48;67.96;101478.00;4993938;28;20360;-75
2022/05/12 02:56:47;;;;;;;1.50;0.83;;;;;;;11.47;68.15;101483.19;4993670;28;20027;-75
2022/05/12 02:59:13;;;;;;;0.60;0.60;;;;;;;11.43;67.86;101493.63;4994051;28;20022;-75
2022/05/12 03:01:39;;;;;;;0.85;0.77;;;;;;;11.41;67.83;101491.91;4993463;28;20489;-75
2022/05/12 03:04:08;;;;;;;1.23;0.93;;;;;;;11.36;67.85;101491.94;4993395;28;20038;-75
2022/05/12 03:06:34;;;;;;;1.83;0.80;;;;;;;11.32;68.27;101489.38;4994077;28;20031;-75
2022/05/12 03:08:59;;;;;;;0.93;0.93;;;;;;;11.25;68.05;101489.47;4993336;28;20030;-75
2022/05/12 03:11:25;;;;;;;1.13;1.07;;;;;;;11.23;67.93;101498.13;4993146;28;20026;-75
2022/05/12 03:13:54;;;;;;;1.87;0.97;;;;;;;11.21;67.87;101492.94;5012692;28;20344;-75
2022/05/12 03:16:19;;;;;;;1.27;0.98;;;;;;;11.19;67.84;101491.22;5013089;28;20026;-75
2022/05/12 03:18:47;;;;;;;1.17;0.90;;;;;;;11.17;68.24;101501.63;5012319;28;20030;-75
2022/05/12 03:21:16;;;;;;;0.85;0.85;;;;;;;11.14;68.14;101501.66;5013232;28;20036;-75
2022/05/12 03:23:42;;;;;;;0.95;0.90;;;;;;;11.10;68.43;101499.94;5012294;28;20112;-75
2022/05/12 03:26:09;;;;;;;1.30;0.90;;;;;;;11.06;68.15;101499.13;4992713;28;20121;-75
2022/05/12 03:28:34;;;;;;;;;;;;;;;11.05;69.51;101494.78;4993863;28;20029;-75
2022/05/12 03:31:00;;;;;;;1.10;1.10;;;;;;;11.01;68.66;101505.22;4992905;28;20021;-75
2022/05/12 03:33:26;;;;;;;1.70;1.03;;;;;;;10.96;69.81;101507.84;4992237;28;20486;-75
2022/05/12 03:35:51;;;;;;;1.13;1.03;;;;;;;10.91;69.42;101510.47;4993018;28;20057;-75
2022/05/12 03:38:18;;;;;;;0.80;0.80;;;;;;;10.86;69.27;101520.00;4992866;28;20026;-75
2022/05/12 03:40:46;;;;;;;0.95;0.77;;;;;;;10.83;70.06;101522.59;4992934;28;20379;-75
2022/05/12 03:44:46;;;;;;;2.63;1.17;;;;;;;10.77;69.85;101522.66;4993402;28;20034;-75
2022/05/12 03:45:57;;;;;;;1.83;1.23;;;;;;;10.73;70.09;101532.19;4992547;28;20042;-75
2022/05/12 03:48:23;;;;;;;2.43;1.33;;;;;;;10.73;69.44;101537.38;4993496;28;20531;-75
2022/05/12 03:50:48;;;;;;;1.83;1.37;;;;;;;10.71;69.75;101536.53;4993108;28;20026;-75
2022/05/12 03:53:13;;;;;;;3.70;1.80;;;;;;;10.70;70.80;101544.31;4992390;28;20113;-75
2022/05/12 03:55:41;;;;;;;1.83;1.30;;;;;;;10.64;70.76;101538.28;5008968;28;20536;-75
2022/05/12 03:58:07;;;;;;;1.50;1.40;;;;;;;10.62;70.96;101539.16;5012915;28;20474;-75
2022/05/12 04:00:34;;;;;;;3.10;1.63;;;;;;;10.58;70.85;101537.44;5012535;28;20117;-75
2022/05/12 04:02:59;;;;;;;4.45;2.00;;;;;;;10.56;70.80;101547.84;5012409;28;20026;-75
2022/05/12 04:05:27;;;;;;;3.47;1.80;;;;;;;10.57;71.17;101551.28;5012678;28;20496;-75
2022/05/12 04:07:53;;;;;;;2.05;1.60;;;;;;;10.55;71.46;101555.63;5011783;28;20061;-75
2022/05/12 04:10:20;;;;;;;1.63;1.50;;;;;;;10.56;72.82;101554.75;5012922;28;20060;-75
2022/05/12 04:12:45;;;;;;;2.35;1.33;;;;;;;10.55;71.40;101555.63;5012427;28;20110;-75
2022/05/12 04:15:12;;;;;;;2.63;1.90;;;;;;;10.54;71.44;101565.16;5012110;28;20108;-75
2022/05/12 04:17:37;;;;;;;1.73;1.60;;;;;;;10.56;71.59;101560.81;5012486;28;20026;-75
2022/05/12 04:20:05;;;;;;;1.90;1.50;;;;;;;10.58;74.25;101566.00;4998989;28;20022;-75
2022/05/12 04:22:30;;;;;;;4.47;1.85;;;;;;;10.56;71.61;101568.63;4992250;28;20383;-75
2022/05/12 04:24:55;;;;;;;3.23;1.80;;;;;;;10.57;75.04;101578.13;4992793;28;20081;-75
2022/05/12 04:27:23;;;;;;;4.57;2.30;;;;;;;10.55;72.41;101573.78;4993030;28;20109;-75
2022/05/12 04:29:49;;;;;;;5.50;2.60;;;;;;;10.57;73.15;101582.44;4992670;28;20054;-75
2022/05/12 04:32:14;;;;;;;3.50;2.30;;;;;;;10.59;72.84;101585.91;4993010;28;20096;-75
2022/05/12 04:37:29;;;;;;;3.20;2.42;;;;;;;10.64;74.01;101591.91;4993286;28;20069;-75
2022/05/12 04:39:54;;;;;;;4.10;2.35;;;;;;;10.63;73.62;101593.66;4992787;28;20053;-75
2022/05/12 04:42:19;;;;;;;3.23;2.17;;;;;;;10.65;74.09;101596.25;4992024;28;20038;-75
2022/05/12 04:44:45;;;;;;;6.57;2.47;;;;;;;10.68;77.30;101598.00;4992704;28;20029;-75
2022/05/12 04:47:10;;;;;;;2.87;2.23;;;;;;;10.66;74.46;101601.47;4996188;28;20041;-75
2022/05/12 04:49:35;;;;;;;7.70;2.83;;;;;;;10.68;76.32;101613.56;4995704;28;20069;-75
2022/05/12 04:52:02;;;;;;;3.60;2.50;;;;;;;10.71;76.05;101609.22;5000622;28;20034;-75
2022/05/12 04:54:28;;;;;;;;;;;;;;;10.76;78.17;101606.59;5016255;28;20026;-75
2022/05/12 04:56:53;;;;;;;6.53;3.30;;;;;;;10.78;76.41;101608.31;5014516;28;20331;-75
2022/05/12 04:59:18;;;;;;;7.30;3.00;;;;;;;10.84;76.79;101604.84;5015794;28;20034;-75
2022/05/12 05:01:44;;;;;;;4.97;2.80;;;;;;;10.89;75.63;101607.41;5015946;28;20482;-75
2022/05/12 05:04:10;;;;;;;4.07;2.50;;;;;;;10.95;74.62;101610.84;5015100;28;20057;-75
2022/05/12 05:06:36;;;;;;;4.15;2.60;;;;;;;11.01;75.23;101615.16;5013881;28;20034;-75
2022/05/12 05:09:02;;;;;;;3.93;2.53;;;;;;;11.06;74.44;101626.41;5014075;28;20152;-75
2022/05/12 05:11:27;;;;;;;4.40;2.60;;;;;;;11.12;75.26;101621.16;5014782;28;20030;-75
2022/05/12 05:13:53;;;;;;;4.47;2.70;;;;;;;11.20;75.71;101633.25;5015447;28;20022;-74
2022/05/12 05:16:18;;;;;;;8.77;3.57;;;;;;;11.27;78.90;101634.94;5015357;28;20359;-75
2022/05/12 05:18:44;;;;;;;6.20;3.10;;;;;;;11.32;77.51;101646.16;5014320;28;20033;-75
2022/05/12 05:21:10;;;;;;;7.28;3.50;;;;;;;11.36;77.87;101639.25;4997853;28;20386;-75
2022/05/12 05:23:37;;;;;;;7.63;3.67;;;;;;;11.37;76.87;101639.22;4995943;28;20105;-76
2022/05/12 05:26:07;;;;;;;5.13;3.08;;;;;;;11.41;79.57;101646.13;4995487;28;20105;-75
2022/05/12 05:28:33;;;;;;;10.05;4.65;;;;;;;11.44;77.69;101645.25;4995782;28;20029;-75
2022/05/12 05:30:58;;;;;;;8.17;3.83;;;;;;;11.49;76.48;101648.66;4994129;28;20054;-75
2022/05/12 05:33:24;;;;;;;10.27;4.03;;;;;;;11.55;77.18;101646.03;4995801;28;20034;-75
2022/05/12 05:35:49;;;;;;;5.40;3.30;;;;;;;11.61;76.64;101654.66;4995050;28;20029;-75
2022/05/12 05:38:15;;;;;;;5.57;3.03;;;;;;;11.68;76.49;101652.00;4994854;28;20455;-75
2022/05/12 05:40:40;;;;;;;7.30;3.20;;;;;;;11.75;76.88;101663.22;4995250;28;20402;-76
2022/05/12 05:43:05;;;;;;;7.60;3.80;;;;;;;11.81;77.81;101676.22;4995313;28;20031;-76
2022/05/12 05:45:31;;;;;;;9.53;4.10;;;;;;;11.87;79.50;101680.50;4994333;28;20034;-76
2022/05/12 05:48:00;;;;;;;8.80;4.05;;;;;;;11.90;77.38;101680.47;4995547;28;20027;-76
2022/05/12 05:53:23;;;;;;;5.60;3.40;;;;;;;11.97;77.97;101695.16;5005982;28;20037;-75
2022/05/12 05:53:24;;;;;;;7.47;3.72;;;;;;;12.02;76.59;101695.16;5014058;28;20053;-74
2022/05/12 05:55:50;;;;;;;5.30;3.15;;;;;;;12.09;76.41;101698.59;5014137;28;20108;-74
2022/05/12 05:58:15;;;;;;;5.40;3.00;;;;;;;12.15;79.64;101702.00;5014608;28;20389;-75
2022/05/12 06:00:43;;;;;;;9.70;4.17;;;;;;;12.22;78.30;101707.16;5013806;28;20037;-75
2022/05/12 06:03:09;;;;;;;9.93;4.43;;;;;;;12.28;79.31;101707.97;5014604;28;20087;-75
2022/05/12 06:05:35;;;;;;;8.68;4.57;;;;;;;12.36;78.47;101715.72;5007868;28;20026;-74
2022/05/12 06:08:04;;;;;;;6.60;3.87;;;;;;;12.43;78.95;101719.13;4993717;28;20113;-75
2022/05/12 06:10:32;;;;;;;7.38;4.00;;;;;;;12.49;77.49;101726.88;4994767;28;20106;-75
2022/05/12 06:12:57;;;;;;;6.78;4.00;;;;;;;12.56;77.37;101727.66;4993923;28;20133;-75
2022/05/12 06:15:26;;;;;;;5.53;3.20;;;;;;;12.59;77.38;101712.03;5147447;22;20195;-75
2022/05/12 06:17:52;;;;;;;5.43;3.45;;;;;;;12.70;77.11;101725.81;5053197;28;20056;-75
2022/05/12 06:20:17;;;;;;;4.27;3.00;;;;;;;12.76;77.53;101730.09;5053425;28;20032;-76
2022/05/12 06:22:43;;;;;;;6.77;3.63;;;;;;;12.78;76.94;101733.50;5053054;28;20048;-76
2022/05/12 06:25:11;;;;;;;6.05;3.58;;;;;;;12.85;77.62;101735.19;5053781;28;20366;-75
2022/05/12 06:27:36;;;;;;;5.97;3.50;;;;;;;12.89;76.71;101739.47;5052976;28;20163;-75
2022/05/12 06:30:05;;;;;;;9.97;4.97;;;;;;;13.17;77.17;101730.50;5053891;28;20579;-77
2022/05/12 06:32:30;;;;;;;7.53;4.25;;;;;;;13.53;77.07;101743.97;5053567;28;20032;-85
2022/05/12 06:34:56;;;;;;;9.40;4.37;;;;;;;13.94;76.74;101746.91;5052589;28;20025;-78
2022/05/12 06:37:25;;;;;;;6.57;3.97;;;;;;;14.37;76.20;101746.22;5053561;28;20049;-78
2022/05/12 06:39:50;;;;;;;8.90;4.40;;;;;;;15.40;75.49;101747.81;5053433;28;20021;-78
2022/05/12 06:42:15;;;;;;;7.37;4.30;;;;;;;17.39;68.17;101743.78;5052310;28;20464;-77
2022/05/12 06:44:47;;;;;;;9.20;4.80;;;;;;;18.62;66.95;101754.75;5052693;28;20029;-78
2022/05/12 06:47:14;;;;;;;9.02;4.57;;;;;;;18.35;65.22;101756.56;5053364;28;20447;-78
2022/05/12 06:49:40;;;;;;;9.07;4.07;;;;;;;18.71;64.54;101769.38;5052400;28;20100;-77
2022/05/12 06:52:07;;;;;;;5.55;3.35;;;;;;;19.17;63.30;101766.03;5053155;28;20481;-78
2022/05/12 06:54:34;;;;;;;9.68;4.80;;;;;;;19.14;61.58;101766.97;5053253;28;20537;-76
2022/05/12 06:57:00;;;;;;;7.53;4.00;;;;;;;19.28;61.06;101763.84;5052395;28;20029;-76
2022/05/12 06:59:26;;;;;;;8.10;4.65;;;;;;;19.44;58.36;101772.03;5053147;28;20025;-77
2022/05/12 07:01:51;;;;;;;7.00;3.83;;;;;;;19.34;60.79;101775.94;5053011;28;20504;-75
2022/05/12 07:04:16;;;;;;;7.23;4.10;;;;;;;19.06;60.19;101780.44;5052206;28;20435;-75
2022/05/12 07:06:42;;;;;;;4.20;3.40;;;;;;;18.57;60.25;101772.47;5052712;28;20071;-76
2022/05/12 07:11:42;;;;;;;5.40;3.50;;;;;;;17.44;61.97;101784.72;6048152;22;20113;-76
2022/05/12 07:14:07;;;;;;;5.03;3.23;;;;;;;17.12;62.78;101783.00;4993698;28;20031;-76
2022/05/12 07:16:33;;;;;;;4.77;3.17;;;;;;;16.91;63.30;101781.78;4994289;28;20065;-76
2022/05/12 07:18:58;;;;;;;6.23;3.47;;;;;;;16.68;63.12;101788.50;4993343;28;20069;-76
2022/05/12 07:26:54;;;;;;;7.32;4.30;;;;;;;16.36;64.44;101792.78;4995490;28;20073;-76
2022/05/12 07:29:25;;;;;;;10.47;4.87;;;;;;;16.42;64.21;101795.28;4992795;28;20046;-76
2022/05/12 07:34:26;;;;;;;9.80;4.70;;;;;;;16.65;63.72;101799.94;6019258;22;20063;-76
2022/05/12 07:36:56;;;;;;;7.53;4.30;;;;;;;16.61;63.59;101800.91;4973529;28;20062;-76
2022/05/12 07:39:28;;;;;;;9.40;4.82;;;;;;;16.54;63.09;101803.75;4973339;28;20110;-76
2022/05/12 07:41:56;;;;;;;10.60;4.63;;;;;;;16.53;62.87;101800.25;4973845;28;20030;-76
2022/05/12 07:44:29;;;;;;;7.10;3.92;;;;;;;16.49;63.37;101809.94;4973330;28;20038;-76
2022/05/12 07:46:54;;;;;;;4.38;3.30;;;;;;;16.39;63.87;101808.44;4954212;29;20067;-76
2022/05/12 07:49:19;;;;;;;6.73;3.77;;;;;;;16.26;63.42;101809.63;4954629;29;20131;-75
2022/05/12 07:51:45;;;;;;;4.80;2.97;;;;;;;16.30;63.81;101809.53;4953588;29;20027;-75
2022/05/12 07:54:10;;;;;;;7.00;3.10;;;;;;;16.38;63.38;101809.34;4954909;29;20039;-75
2022/05/12 07:56:35;;;;;;;5.80;2.80;;;;;;;16.36;63.06;101817.25;4954568;28;20403;-77
2022/05/12 07:59:00;;;;;;;7.63;3.80;;;;;;;16.28;63.17;101813.09;4953634;28;20038;-76
2022/05/12 08:01:27;;;;;;;5.23;3.00;;;;;;;16.32;63.65;101817.38;4954671;29;20020;-76
2022/05/12 08:03:58;;;;;;;3.67;2.95;;;;;;;16.50;62.86;101814.28;4954443;28;20023;-76
2022/05/12 08:06:24;;;;;;;3.45;2.70;;;;;;;16.73;62.70;101819.84;4953408;29;20035;-76
2022/05/12 08:08:53;;;;;;;6.73;3.80;;;;;;;16.98;61.57;101820.13;4983894;23;20058;-76
2022/05/12 08:11:19;;;;;;;4.90;3.00;;;;;;;17.13;61.87;101817.06;4972852;28;20459;-76
2022/05/12 08:13:46;;;;;;;6.00;3.57;;;;;;;17.36;58.21;101814.72;4971372;28;20043;-76
2022/05/12 08:16:12;;;;;;;8.27;4.35;;;;;;;17.52;59.42;101817.75;4973664;28;20484;-76
2022/05/12 08:21:13;;;;;;;4.00;3.20;;;;;;;17.87;57.93;101823.72;5033294;28;20053;-76
2022/05/12 08:23:38;;;;;;;3.85;3.00;;;;;;;17.99;56.33;101831.25;5035920;28;20025;-76
2022/05/12 08:26:03;;;;;;;10.70;4.33;;;;;;;18.01;54.13;101825.94;5036204;28;20120;-76
2022/05/12 08:28:28;;;;;;;8.90;5.20;;;;;;;18.05;55.24;101827.59;5035463;28;20112;-76
2022/05/12 08:30:55;;;;;;;5.93;3.60;;;;;;;18.13;57.13;101830.81;5136332;22;20053;-76
2022/05/12 08:33:20;;;;;;;3.45;2.70;;;;;;;18.25;56.09;101829.56;5036246;28;20135;-76
2022/05/12 08:35:46;;;;;;;4.40;2.87;;;;;;;18.24;54.87;101824.38;5034667;28;20469;-76
2022/05/12 08:38:13;;;;;;;4.57;2.53;;;;;;;18.21;51.66;101823.56;5035657;28;20025;-76
2022/05/12 08:40:47;;;;;;;;;;;;;;;18.15;52.35;101834.28;5035084;28;20545;-76
2022/05/12 08:43:24;;;;;;;4.57;2.30;;;;;;;18.20;52.90;101824.47;5035948;28;19917;-76
2022/05/12 08:45:52;;;;;;;4.28;2.30;;;;;;;18.17;53.96;101821.94;5035829;28;20052;-76
2022/05/12 08:48:19;;;;;;;3.00;2.25;;;;;;;18.29;53.53;101835.59;5035196;28;20056;-76
2022/05/12 08:50:50;;;;;;;3.78;2.30;;;;;;;18.47;53.52;101835.00;5034981;28;20022;-76
2022/05/12 08:53:21;;;;;;;5.03;2.65;;;;;;;18.60;50.85;101831.97;5035700;28;20033;-76
2022/05/12 08:55:56;;;;;;;4.88;2.42;;;;;;;18.48;51.03;101830.59;5034849;28;20076;-75
2022/05/12 08:58:36;;;;;;;3.67;2.60;;;;;;;18.18;50.59;101826.28;5036650;28;20068;-77
2022/05/12 09:01:36;;;;;;;3.83;2.30;;;;;;;18.11;50.85;101834.41;5035900;28;20108;-77
2022/05/12 09:04:51;;;;;;;2.72;1.80;;;;;;;18.32;50.01;101836.38;5020348;28;20041;-76
2022/05/12 09:07:27;;;;;;;3.53;1.80;;;;;;;18.50;51.19;101834.91;5031213;28;20048;-76
2022/05/12 09:10:05;;;;;;;3.20;2.00;;;;;;;18.79;52.00;101838.31;5034442;28;20284;-76
2022/05/12 09:12:45;;;;;;;4.97;2.50;;;;;;;18.92;47.31;101846.63;5035382;28;20021;-77
2022/05/12 09:15:16;;;;;;;4.15;2.60;;;;;;;19.02;47.43;101847.22;5035523;28;20123;-77
2022/05/12 09:17:49;;;;;;;3.28;2.38;;;;;;;19.09;46.33;101842.59;5034220;28;20482;-77
2022/05/12 09:20:15;;;;;;;2.78;1.90;;;;;;;19.14;47.72;101835.38;5035198;28;20030;-77
2022/05/12 09:22:42;;;;;;;2.20;1.75;;;;;;;19.17;48.64;101844.97;5035016;28;20025;-77
2022/05/12 09:25:15;;;;;;;4.35;2.30;;;;;;;19.34;48.34;101842.56;5034590;28;20079;-77
2022/05/12 09:27:44;;;;;;;3.80;1.98;;;;;;;19.38;47.10;101848.59;5034850;28;20362;-76
2022/05/12 09:30:11;;;;;;;2.78;1.88;;;;;;;19.22;47.54;101851.78;5033765;28;20088;-77
2022/05/12 09:32:39;;;;;;;1.92;1.70;;;;;;;19.07;48.10;101844.44;5034156;28;20022;-77
2022/05/12 09:35:21;;;;;;;2.08;1.90;;;;;;;18.84;48.64;101843.41;5034268;28;20033;-77
2022/05/12 09:37:49;;;;;;;2.00;1.52;;;;;;;18.70;49.24;101849.16;5033697;28;20026;-77
2022/05/12 09:40:35;;;;;;;1.60;1.50;;;;;;;18.86;49.30;101844.22;5034303;28;20037;-77
2022/05/12 09:43:02;;;;;;;;;;;;;;;19.07;48.84;101842.66;5033648;28;20064;-77
2022/05/12 09:45:34;;;;;;;2.47;1.60;;;;;;;19.34;48.07;101841.72;5034012;28;19913;-77
2022/05/12 09:48:18;;;;;;;3.83;1.98;;;;;;;19.56;45.39;101839.16;5034488;28;20029;-77
2022/05/12 09:50:44;;;;;;;3.38;1.92;;;;;;;19.72;46.94;101834.16;5034204;28;20159;-77
2022/05/12 09:53:11;;;;;;;2.75;2.10;;;;;;;19.85;43.71;101830.16;5033601;28;20109;-77
2022/05/12 09:55:40;;;;;;;5.38;2.30;;;;;;;19.86;44.73;101836.31;5034080;28;20029;-77
2022/05/12 09:58:32;;;;;;;2.40;2.00;;;;;;;19.80;45.33;101829.47;5033738;28;20014;-77
2022/05/12 10:01:15;;;;;;;2.13;1.92;;;;;;;19.99;46.67;101829.63;5034152;28;20120;-76
2022/05/12 10:09:23;;;;;;;5.33;2.37;;;;;;;20.39;41.08;101829.81;5027736;28;20509;-76
2022/05/12 10:12:08;;;;;;;3.25;2.00;;;;;;;20.40;42.92;101826.25;5033590;28;20101;-76
2022/05/12 10:14:48;;;;;;;3.78;1.80;;;;;;;20.65;39.65;101827.88;5034080;28;20116;-76
2022/05/12 10:17:16;;;;;;;1.25;1.15;;;;;;;20.90;43.49;101827.69;5034116;28;20389;-76
2022/05/12 10:19:45;;;;;;;1.92;1.55;;;;;;;21.17;43.17;101824.78;5033009;28;20378;-77
2022/05/12 10:22:18;;;;;;;1.95;1.05;;;;;;;21.48;43.24;101828.69;5033757;28;20218;-76
2022/05/12 10:25:21;;;;;;;1.75;1.40;;;;;;;21.66;40.64;101827.00;5033570;28;20028;-78
2022/05/12 10:28:03;;;;;;;1.75;1.40;;;;;;;21.79;40.18;101829.06;5032566;28;20761;-81
2022/05/12 10:30:51;;;;;;;0.90;0.90;;;;;;;21.99;40.56;101831.63;5033223;28;20510;-78
2022/05/12 10:33:39;;;;;;;1.42;1.23;;;;;;;22.04;37.31;101832.28;5031756;28;20040;-75
2022/05/12 10:36:12;;;;;;;2.38;1.50;;;;;;;21.81;40.34;101830.72;5023383;28;20038;-78
2022/05/12 10:39:01;;;;;;;2.65;1.60;;;;;;;21.64;38.78;101834.13;5032539;28;20056;-78
2022/05/12 10:41:30;;;;;;;1.77;1.25;;;;;;;21.49;37.57;101833.03;5032121;28;20036;-77
2022/05/12 10:44:29;;;;;;;1.10;1.02;;;;;;;21.46;38.70;101833.16;5033212;28;20075;-78
2022/05/12 10:47:12;;;;;;;3.20;1.60;;;;;;;21.43;37.20;101823.59;5033147;28;20033;-77
2022/05/12 10:50:15;;;;;;;2.72;1.80;;;;;;;21.44;39.48;101835.03;5032987;28;20470;-76
2022/05/12 10:53:06;;;;;;;2.75;1.65;;;;;;;21.66;38.12;101821.72;5032758;28;20083;-77
2022/05/12 10:56:03;;;;;;;4.63;1.90;;;;;;;21.83;37.15;101822.72;5020386;28;20141;-77
2022/05/12 10:58:34;;;;;;;3.30;1.88;;;;;;;21.82;37.40;101818.38;5030428;28;20040;-77
2022/05/12 11:01:12;;;;;;;1.60;1.50;;;;;;;21.93;39.53;101831.94;5033033;28;20398;-77
2022/05/12 11:03:58;;;;;;;2.72;1.42;;;;;;;21.95;38.51;101830.06;5032043;28;20029;-77
2022/05/12 11:06:31;;;;;;;0.90;0.85;;;;;;;21.96;39.13;101818.53;5032725;28;20029;-77
2022/05/12 11:09:03;;;;;;;1.40;1.30;;;;;;;22.14;39.69;101815.97;5031569;28;20821;-77
2022/05/12 11:11:36;;;;;;;2.03;1.15;;;;;;;22.35;37.87;101812.25;5031005;28;20029;-76
2022/05/12 11:14:14;;;;;;;1.23;1.00;;;;;;;22.28;39.18;101817.91;5031316;28;20068;-78
2022/05/12 11:16:50;;;;;;;0.57;0.57;;;;;;;22.18;38.64;101809.59;5031811;28;20029;-77
2022/05/12 11:19:24;;;;;;;1.13;1.00;;;;;;;22.37;38.48;101812.16;5032949;28;20382;-77
2022/05/12 11:22:01;;;;;;;1.55;1.45;;;;;;;22.58;35.72;101819.97;5030337;28;20079;-78
2022/05/12 11:24:47;;;;;;;1.00;0.88;;;;;;;22.64;36.30;101811.75;5014114;28;20077;-77
2022/05/12 11:27:21;;;;;;;1.48;1.20;;;;;;;22.57;37.53;101805.91;5012731;28;20540;-77
2022/05/12 11:30:06;;;;;;;1.10;1.10;;;;;;;22.46;38.39;101810.88;5028323;28;20055;-77
2022/05/12 11:33:09;;;;;;;2.03;1.80;;;;;;;22.29;35.29;101812.53;5032481;28;20029;-77
2022/05/12 11:36:01;;;;;;;1.33;1.00;;;;;;;21.97;37.66;101814.97;5032476;28;20116;-77
2022/05/12 11:38:39;;;;;;;2.20;1.40;;;;;;;21.79;37.72;101800.00;5031353;28;20022;-77
2022/05/12 11:41:27;;;;;;;1.75;1.42;;;;;;;21.94;36.83;101803.69;5022528;22;20490;-77
2022/05/12 11:44:26;;;;;;;1.35;1.17;;;;;;;22.14;37.90;101794.81;4991953;28;20129;-77
2022/05/12 11:47:13;;;;;;;0.95;0.95;;;;;;;22.36;37.63;101798.09;4993371;22;20059;-77
2022/05/12 11:49:41;;;;;;;2.20;2.00;;;;;;;22.55;36.58;101796.34;4973649;28;20454;-77
2022/05/12 11:52:31;;;;;;;1.73;1.50;;;;;;;22.55;36.51;101802.47;4972967;28;20046;-77
2022/05/12 11:55:04;;;;;;;1.90;1.60;;;;;;;22.46;33.75;101798.50;4975654;28;20062;-77
2022/05/12 11:57:38;;;;;;;1.98;1.65;;;;;;;22.25;35.36;101803.06;4977124;28;20035;-77
2022/05/12 12:00:35;;;;;;;1.98;1.50;;;;;;;22.14;37.70;101798.28;4976669;28;20472;-77